createdAt,value
2022-10-30T00:01:22.879Z,101490.97
2022-10-30T00:03:51.911Z,101489.88
2022-10-30T00:06:19.008Z,101495.03
2022-10-30T00:08:46.142Z,101484.59
2022-10-30T00:11:14.150Z,101477.16
2022-10-30T00:13:47.180Z,101475.47
2022-10-30T00:16:14.364Z,101474.06
2022-10-30T00:18:44.036Z,101466.91
2022-10-30T00:21:16.454Z,101463.16
2022-10-30T00:23:53.533Z,101481.84
2022-10-30T00:26:22.588Z,101481.88
2022-10-30T00:28:57.449Z,101479.66
2022-10-30T00:31:24.638Z,101478.41
2022-10-30T00:33:53.809Z,101477.09
2022-10-30T00:36:31.823Z,101470.94
2022-10-30T00:38:58.896Z,101471.75
2022-10-30T00:41:26.216Z,101464.59
2022-10-30T00:43:53.724Z,101461.56
2022-10-30T00:46:38.436Z,101474.63
2022-10-30T00:49:16.912Z,101464.75
2022-10-30T00:51:52.574Z,101464.56
2022-10-30T00:54:20.467Z,101453.06
2022-10-30T00:56:50.358Z,101455.53
2022-10-30T00:59:26.614Z,101457.84
2022-10-30T01:01:54.699Z,101459.81
2022-10-30T01:04:28.997Z,101465.22
2022-10-30T01:06:58.742Z,101457.34
2022-10-30T01:09:26.132Z,101455.66
2022-10-30T01:11:53.342Z,101454.69
2022-10-30T01:14:21.632Z,101444.06
2022-10-30T01:17:17.074Z,101446.31
2022-10-30T01:20:19.236Z,101443.03
2022-10-30T01:22:58.886Z,101438.72
2022-10-30T01:26:00.995Z,101440.56
2022-10-30T01:28:54.860Z,101452.09
2022-10-30T01:32:18.333Z,101453.06
2022-10-30T01:35:05.079Z,101457.44
2022-10-30T01:38:25.694Z,101453.56
2022-10-30T01:40:53.087Z,101460.31
2022-10-30T01:43:21.043Z,101473.25
2022-10-30T01:46:22.953Z,101476.56
2022-10-30T01:49:14.426Z,101489.53
2022-10-30T01:52:22.315Z,101496.47
2022-10-30T01:55:24.490Z,101498.53
2022-10-30T01:58:00.178Z,101500.56
2022-10-30T02:00:28.549Z,101498.53
2022-10-30T02:02:56.201Z,101492.34
2022-10-30T02:05:33.492Z,101501.69
2022-10-30T02:08:02.210Z,101505.22
2022-10-30T02:10:31.728Z,101500.88
2022-10-30T02:12:58.931Z,101499.59
2022-10-30T02:15:26.150Z,101509.03
2022-10-30T02:17:54.837Z,101523.75
2022-10-30T02:20:24.586Z,101520.44
2022-10-30T02:22:54.586Z,101524.03
2022-10-30T02:25:27.955Z,101508.28
2022-10-30T02:27:55.173Z,101521.13
2022-10-30T02:30:22.457Z,101515.00
2022-10-30T02:32:52.545Z,101518.50
2022-10-30T02:35:19.643Z,101514.16
2022-10-30T02:37:49.870Z,101513.59
2022-10-30T02:40:17.218Z,101515.38
2022-10-30T02:42:44.618Z,101505.44
2022-10-30T02:45:12.023Z,101497.34
2022-10-30T02:47:39.242Z,101488.72
2022-10-30T02:50:09.585Z,101483.03
2022-10-30T02:52:36.693Z,101485.50
2022-10-30T02:55:04.235Z,101480.91
2022-10-30T02:57:33.881Z,101484.25
2022-10-30T03:00:01.603Z,101490.03
2022-10-30T03:02:28.717Z,101490.03
2022-10-30T03:04:58.004Z,101479.81
2022-10-30T03:07:25.170Z,101476.31
2022-10-30T03:09:55.708Z,101481.72
2022-10-30T03:12:25.354Z,101482.34
2022-10-30T03:14:54.756Z,101469.53
2022-10-30T03:17:24.451Z,101454.38
2022-10-30T03:19:51.788Z,101441.31
2022-10-30T03:22:19.052Z,101429.22
2022-10-30T03:24:46.206Z,101444.88
2022-10-30T03:27:13.413Z,101456.25
2022-10-30T03:29:40.731Z,101450.75
2022-10-30T03:32:11.849Z,101451.03
2022-10-30T03:34:39.220Z,101453.53
2022-10-30T03:37:09.047Z,101453.94
2022-10-30T03:39:36.262Z,101450.16
2022-10-30T03:42:06.066Z,101441.66
2022-10-30T03:44:33.523Z,101443.19
2022-10-30T03:47:00.737Z,101457.66
2022-10-30T03:49:28.066Z,101463.75
2022-10-30T03:51:57.516Z,101456.41
2022-10-30T03:54:24.655Z,101461.00
2022-10-30T03:56:54.297Z,101459.13
2022-10-30T03:59:21.555Z,101448.81
2022-10-30T04:01:49.021Z,101443.47
2022-10-30T04:04:16.384Z,101449.88
2022-10-30T04:06:47.672Z,101445.75
2022-10-30T04:09:18.582Z,101453.31
2022-10-30T04:11:46.033Z,101456.41
2022-10-30T04:14:13.147Z,101455.44
2022-10-30T04:16:40.228Z,101464.31
2022-10-30T04:19:07.563Z,101457.16
2022-10-30T04:21:34.729Z,101456.47
2022-10-30T04:24:02.090Z,101457.25
2022-10-30T04:26:38.748Z,101456.66
2022-10-30T04:29:06.295Z,101461.41
2022-10-30T04:31:33.344Z,101452.34
2022-10-30T04:34:00.477Z,101442.72
2022-10-30T04:36:34.012Z,101442.41
2022-10-30T04:39:04.218Z,101451.72
2022-10-30T04:41:31.561Z,101459.50
2022-10-30T04:43:58.646Z,101468.56
2022-10-30T04:46:25.685Z,101467.56
2022-10-30T04:48:53.256Z,101470.25
2022-10-30T04:51:20.479Z,101487.44
2022-10-30T04:53:50.056Z,101489.66
2022-10-30T04:56:17.141Z,101481.06
2022-10-30T04:58:44.201Z,101494.47
2022-10-30T05:01:14.051Z,101490.22
2022-10-30T05:03:41.241Z,101489.06
2022-10-30T05:06:22.061Z,101473.72
2022-10-30T05:08:50.184Z,101467.25
2022-10-30T05:11:18.327Z,101468.66
2022-10-30T05:13:47.710Z,101472.81
2022-10-30T05:16:14.835Z,101470.00
2022-10-30T05:18:44.332Z,101467.19
2022-10-30T05:21:11.448Z,101461.28
2022-10-30T05:23:38.640Z,101480.81
2022-10-30T05:26:08.297Z,101490.00
2022-10-30T05:28:35.361Z,101488.38
2022-10-30T05:31:02.629Z,101489.25
2022-10-30T05:33:32.159Z,101480.63
2022-10-30T05:35:59.388Z,101476.59
2022-10-30T05:38:26.520Z,101469.41
2022-10-30T05:40:53.638Z,101465.72
2022-10-30T05:43:20.734Z,101466.66
2022-10-30T05:45:50.130Z,101471.66
2022-10-30T05:48:17.536Z,101462.66
2022-10-30T05:50:44.864Z,101461.81
2022-10-30T05:53:11.965Z,101472.31
2022-10-30T05:55:39.069Z,101479.44
2022-10-30T05:58:07.256Z,101479.13
2022-10-30T06:00:36.971Z,101481.56
2022-10-30T06:03:07.477Z,101478.72
2022-10-30T06:05:39.624Z,101470.09
2022-10-30T06:08:07.973Z,101474.81
2022-10-30T06:10:37.985Z,101468.03
2022-10-30T06:13:07.559Z,101472.06
2022-10-30T06:15:34.840Z,101483.19
2022-10-30T06:18:02.234Z,101478.72
2022-10-30T06:20:31.141Z,101481.22
2022-10-30T06:23:08.441Z,101488.81
2022-10-30T06:25:41.123Z,101489.16
2022-10-30T06:28:11.693Z,101487.34
2022-10-30T06:30:38.943Z,101484.78
2022-10-30T06:33:06.777Z,101478.94
2022-10-30T06:35:33.930Z,101474.44
2022-10-30T06:38:01.174Z,101476.59
2022-10-30T06:40:30.295Z,101471.69
2022-10-30T06:42:58.199Z,101486.31
2022-10-30T06:45:25.768Z,101486.38
2022-10-30T06:47:53.042Z,101497.78
2022-10-30T06:50:22.290Z,101512.53
2022-10-30T06:52:49.692Z,101513.94
2022-10-30T06:55:17.544Z,101526.72
2022-10-30T06:57:44.784Z,101526.69
2022-10-30T07:00:13.278Z,101520.28
2022-10-30T07:03:25.413Z,101522.34
2022-10-30T07:05:52.917Z,101517.63
2022-10-30T07:08:20.155Z,101502.41
2022-10-30T07:10:49.942Z,101504.66
2022-10-30T07:13:17.922Z,101505.69
2022-10-30T07:15:45.172Z,101508.91
2022-10-30T07:18:14.585Z,101514.94
2022-10-30T07:20:41.703Z,101512.22
2022-10-30T07:23:09.733Z,101513.53
2022-10-30T07:25:40.929Z,101512.59
2022-10-30T07:28:08.352Z,101506.91
2022-10-30T07:30:35.810Z,101509.41
2022-10-30T07:33:08.065Z,101510.06
2022-10-30T07:35:39.050Z,101524.72
2022-10-30T07:38:14.360Z,101519.72
2022-10-30T07:40:41.486Z,101522.72
2022-10-30T07:43:13.451Z,101531.69
2022-10-30T07:45:40.663Z,101525.34
2022-10-30T07:48:07.708Z,101518.72
2022-10-30T07:50:37.241Z,101525.34
2022-10-30T07:53:04.329Z,101531.53
2022-10-30T07:55:31.476Z,101531.03
2022-10-30T07:57:58.969Z,101530.97
2022-10-30T08:00:26.345Z,101538.88
2022-10-30T08:02:57.576Z,101537.19
2022-10-30T08:05:29.057Z,101539.44
2022-10-30T08:07:57.602Z,101536.25
2022-10-30T08:10:25.159Z,101533.94
2022-10-30T08:12:52.273Z,101532.97
2022-10-30T08:15:19.436Z,101539.25
2022-10-30T08:17:48.989Z,101538.94
2022-10-30T08:20:19.607Z,101548.66
2022-10-30T08:22:52.923Z,101542.84
2022-10-30T08:25:22.441Z,101548.44
2022-10-30T08:27:55.549Z,101540.00
2022-10-30T08:30:25.174Z,101543.66
2022-10-30T08:32:52.289Z,101548.22
2022-10-30T08:35:20.273Z,101552.06
2022-10-30T08:37:47.886Z,101549.25
2022-10-30T08:40:15.091Z,101545.34
2022-10-30T08:42:42.193Z,101540.69
2022-10-30T08:45:09.725Z,101540.84
2022-10-30T08:47:36.775Z,101536.06
2022-10-30T08:50:04.145Z,101538.06
2022-10-30T08:52:31.187Z,101538.28
2022-10-30T08:54:58.253Z,101539.28
2022-10-30T08:57:25.602Z,101537.22
2022-10-30T08:59:55.077Z,101536.97
2022-10-30T09:02:22.248Z,101535.16
2022-10-30T09:04:51.595Z,101523.56
2022-10-30T09:07:18.667Z,101525.66
2022-10-30T09:09:48.280Z,101535.72
2022-10-30T09:12:16.294Z,101552.44
2022-10-30T09:14:43.370Z,101548.94
2022-10-30T09:17:10.648Z,101552.34
2022-10-30T09:19:38.169Z,101542.25
2022-10-30T09:22:05.501Z,101539.03
2022-10-30T09:24:32.526Z,101535.44
2022-10-30T09:26:59.589Z,101530.84
2022-10-30T09:29:26.714Z,101534.34
2022-10-30T09:31:53.744Z,101535.19
2022-10-30T09:34:20.856Z,101539.97
2022-10-30T09:36:48.858Z,101544.69
2022-10-30T09:39:16.420Z,101533.81
2022-10-30T09:42:07.545Z,101525.41
2022-10-30T09:45:15.171Z,101533.41
2022-10-30T09:48:19.535Z,101533.50
2022-10-30T09:51:29.472Z,101536.84
2022-10-30T09:54:24.087Z,101536.38
2022-10-30T09:57:04.883Z,101539.13
2022-10-30T10:00:15.406Z,101537.50
2022-10-30T10:03:27.623Z,101542.66
2022-10-30T10:05:59.470Z,101550.88
2022-10-30T10:08:46.569Z,101543.81
2022-10-30T10:11:44.271Z,101536.38
2022-10-30T10:14:18.923Z,101532.31
2022-10-30T10:16:52.863Z,101542.22
2022-10-30T10:19:30.846Z,101535.31
2022-10-30T10:22:04.194Z,101528.47
2022-10-30T10:24:38.912Z,101531.31
2022-10-30T10:27:13.137Z,101524.56
2022-10-30T10:29:53.926Z,101522.28
2022-10-30T10:33:04.671Z,101520.03
2022-10-30T10:35:42.205Z,101513.31
2022-10-30T10:38:53.118Z,101515.25
2022-10-30T10:41:51.057Z,101504.78
2022-10-30T10:44:41.377Z,101498.44
2022-10-30T10:47:35.611Z,101492.81
2022-10-30T10:50:29.728Z,101493.69
2022-10-30T10:53:20.686Z,101494.72
2022-10-30T10:55:52.866Z,101493.84
2022-10-30T10:58:56.869Z,101494.91
2022-10-30T11:01:39.026Z,101486.97
2022-10-30T11:04:30.143Z,101482.47
2022-10-30T11:07:02.779Z,101482.16
2022-10-30T11:09:29.872Z,101480.38
2022-10-30T11:11:59.464Z,101476.91
2022-10-30T11:14:32.004Z,101470.00
2022-10-30T11:17:29.131Z,101467.91
2022-10-30T11:20:30.272Z,101471.13
2022-10-30T11:22:57.810Z,101469.75
2022-10-30T11:25:33.534Z,101475.13
2022-10-30T11:28:04.538Z,101464.47
2022-10-30T11:30:35.119Z,101458.44
2022-10-30T11:33:23.365Z,101450.97
2022-10-30T11:35:50.519Z,101447.69
2022-10-30T11:38:21.421Z,101459.47
2022-10-30T11:40:52.888Z,101445.72
2022-10-30T11:43:24.405Z,101438.13
2022-10-30T11:45:52.409Z,101443.13
2022-10-30T11:48:34.009Z,101443.16
2022-10-30T11:51:03.283Z,101450.28
2022-10-30T11:53:47.830Z,101449.06
2022-10-30T11:56:23.030Z,101440.50
2022-10-30T11:59:12.883Z,101425.00
2022-10-30T12:01:57.685Z,101433.00
2022-10-30T12:04:28.172Z,101434.56
2022-10-30T12:07:14.034Z,101425.75
2022-10-30T12:09:47.215Z,101417.47
2022-10-30T12:12:39.764Z,101425.94
2022-10-30T12:15:15.867Z,101428.22
2022-10-30T12:18:02.416Z,101427.72
2022-10-30T12:20:30.147Z,101426.94
2022-10-30T12:23:09.624Z,101429.63
2022-10-30T12:25:37.645Z,101426.16
2022-10-30T12:28:15.590Z,101424.09
2022-10-30T12:31:15.162Z,101427.13
2022-10-30T12:34:03.851Z,101429.22
2022-10-30T12:36:40.368Z,101421.38
2022-10-30T12:39:34.303Z,101433.50
2022-10-30T12:42:18.040Z,101425.53
2022-10-30T12:45:06.885Z,101422.34
2022-10-30T12:48:02.674Z,101422.31
2022-10-30T12:50:59.183Z,101420.25
2022-10-30T12:53:34.459Z,101424.38
2022-10-30T12:56:30.265Z,101418.53
2022-10-30T12:59:23.057Z,101416.25
2022-10-30T13:02:15.982Z,101405.66
2022-10-30T13:04:52.197Z,101419.69
2022-10-30T13:07:50.416Z,101420.31
2022-10-30T13:10:58.319Z,101419.25
2022-10-30T13:13:35.675Z,101419.19
2022-10-30T13:16:08.685Z,101414.53
2022-10-30T13:18:38.419Z,101402.44
2022-10-30T13:21:11.415Z,101407.75
2022-10-30T13:24:11.736Z,101406.25
2022-10-30T13:26:48.510Z,101408.75
2022-10-30T13:29:27.906Z,101406.69
2022-10-30T13:32:17.371Z,101403.19
2022-10-30T13:35:37.954Z,101418.09
2022-10-30T13:38:19.940Z,101419.69
2022-10-30T13:41:42.429Z,101413.94
2022-10-30T13:44:32.189Z,101416.13
2022-10-30T13:47:27.167Z,101418.66
2022-10-30T13:50:15.655Z,101421.75
2022-10-30T13:52:50.542Z,101426.59
2022-10-30T13:55:31.423Z,101425.25
2022-10-30T13:58:24.789Z,101424.78
2022-10-30T14:01:30.403Z,101423.50
2022-10-30T14:04:12.960Z,101425.53
2022-10-30T14:06:51.551Z,101425.09
2022-10-30T14:09:44.569Z,101417.81
2022-10-30T14:12:48.964Z,101408.44
2022-10-30T14:15:43.959Z,101413.50
2022-10-30T14:18:14.001Z,101410.22
2022-10-30T14:20:46.460Z,101409.03
2022-10-30T14:23:36.262Z,101403.41
2022-10-30T14:26:10.674Z,101407.69
2022-10-30T14:28:47.438Z,101408.19
2022-10-30T14:31:18.031Z,101406.47
2022-10-30T14:33:52.315Z,101409.72
2022-10-30T14:36:34.617Z,101410.69
2022-10-30T14:39:13.421Z,101409.31
2022-10-30T14:42:02.387Z,101408.50
2022-10-30T14:44:52.201Z,101405.13
2022-10-30T14:48:11.494Z,101406.47
2022-10-30T14:51:25.211Z,101401.06
2022-10-30T14:54:06.606Z,101398.50
2022-10-30T14:56:51.102Z,101389.91
2022-10-30T14:59:18.120Z,101390.31
2022-10-30T15:02:04.082Z,101398.66
2022-10-30T15:04:57.246Z,101391.44
2022-10-30T15:07:50.019Z,101390.13
2022-10-30T15:10:34.128Z,101386.41
2022-10-30T15:13:10.624Z,101381.16
2022-10-30T15:15:38.092Z,101389.31
2022-10-30T15:18:15.946Z,101393.53
2022-10-30T15:20:43.368Z,101395.53
2022-10-30T15:23:19.423Z,101392.69
2022-10-30T15:25:56.947Z,101391.88
2022-10-30T15:28:30.515Z,101383.66
2022-10-30T15:31:18.229Z,101385.81
2022-10-30T15:33:47.653Z,101392.38
2022-10-30T15:36:28.485Z,101385.47
2022-10-30T15:39:14.998Z,101381.25
2022-10-30T15:42:04.256Z,101380.25
2022-10-30T15:44:37.855Z,101383.63
2022-10-30T15:47:12.638Z,101387.00
2022-10-30T15:49:54.453Z,101386.06
2022-10-30T15:52:32.530Z,101382.59
2022-10-30T15:55:10.112Z,101390.03
2022-10-30T15:58:07.138Z,101378.31
2022-10-30T16:00:37.640Z,101383.09
2022-10-30T16:03:13.443Z,101386.38
2022-10-30T16:05:43.119Z,101378.41
2022-10-30T16:08:19.565Z,101381.91
2022-10-30T16:10:47.625Z,101386.81
2022-10-30T16:13:21.980Z,101383.53
2022-10-30T16:15:50.419Z,101383.34
2022-10-30T16:18:28.393Z,101388.31
2022-10-30T16:21:02.543Z,101382.34
2022-10-30T16:23:36.354Z,101390.59
2022-10-30T16:26:03.636Z,101388.13
2022-10-30T16:28:37.960Z,101386.66
2022-10-30T16:31:15.389Z,101382.34
2022-10-30T16:33:44.728Z,101385.22
2022-10-30T16:36:18.394Z,101380.69
2022-10-30T16:38:49.315Z,101378.88
2022-10-30T16:41:22.700Z,101386.59
2022-10-30T16:44:30.289Z,101377.16
2022-10-30T16:47:16.904Z,101386.41
2022-10-30T16:49:52.461Z,101382.09
2022-10-30T16:52:27.510Z,101388.88
2022-10-30T16:55:20.185Z,101390.09
2022-10-30T16:57:57.375Z,101388.63
2022-10-30T17:00:36.541Z,101384.91
2022-10-30T17:03:11.787Z,101388.44
2022-10-30T17:05:44.149Z,101393.78
2022-10-30T17:08:17.152Z,101387.38
2022-10-30T17:11:05.277Z,101386.28
2022-10-30T17:13:38.249Z,101391.25
2022-10-30T17:16:27.139Z,101390.88
2022-10-30T17:18:58.096Z,101387.94
2022-10-30T17:21:42.217Z,101396.53
2022-10-30T17:24:29.648Z,101400.94
2022-10-30T17:27:00.234Z,101407.38
2022-10-30T17:29:42.407Z,101405.47
2022-10-30T17:32:21.031Z,101403.63
2022-10-30T17:35:00.145Z,101406.69
2022-10-30T17:37:28.126Z,101403.81
2022-10-30T17:39:55.227Z,101406.34
2022-10-30T17:42:22.427Z,101408.78
2022-10-30T17:44:49.701Z,101413.34
2022-10-30T17:47:19.840Z,101406.56
2022-10-30T17:49:49.615Z,101409.38
2022-10-30T17:52:22.981Z,101406.03
2022-10-30T17:54:50.299Z,101405.19
2022-10-30T17:57:17.441Z,101407.50
2022-10-30T17:59:44.666Z,101416.06
2022-10-30T18:02:23.252Z,101406.69
2022-10-30T18:04:54.968Z,101407.44
2022-10-30T18:07:24.577Z,101411.16
2022-10-30T18:09:51.609Z,101411.94
2022-10-30T18:12:19.283Z,101409.53
2022-10-30T18:14:46.432Z,101410.31
2022-10-30T18:17:18.363Z,101404.13
2022-10-30T18:19:45.422Z,101402.91
2022-10-30T18:22:12.533Z,101398.31
2022-10-30T18:24:42.878Z,101401.97
2022-10-30T18:27:09.911Z,101410.28
2022-10-30T18:29:36.980Z,101411.91
2022-10-30T18:32:09.276Z,101408.97
2022-10-30T18:34:36.713Z,101409.25
2022-10-30T18:37:03.816Z,101413.28
2022-10-30T18:39:33.358Z,101412.72
2022-10-30T18:42:00.918Z,101414.94
2022-10-30T18:44:27.960Z,101413.34
2022-10-30T18:47:00.090Z,101408.84
2022-10-30T18:49:32.060Z,101414.75
2022-10-30T18:51:59.325Z,101415.38
2022-10-30T18:54:27.063Z,101415.44
2022-10-30T18:56:54.041Z,101411.81
2022-10-30T18:59:21.140Z,101409.22
2022-10-30T19:01:48.383Z,101411.03
2022-10-30T19:04:20.835Z,101409.81
2022-10-30T19:06:51.287Z,101407.41
2022-10-30T19:09:20.564Z,101396.38
2022-10-30T19:11:48.240Z,101396.78
2022-10-30T19:14:18.436Z,101398.66
2022-10-30T19:16:47.559Z,101393.41
2022-10-30T19:19:15.101Z,101400.59
2022-10-30T19:21:42.253Z,101407.22
2022-10-30T19:24:20.282Z,101404.75
2022-10-30T19:26:47.320Z,101394.28
2022-10-30T19:29:14.634Z,101402.03
2022-10-30T19:31:42.175Z,101404.25
2022-10-30T19:34:09.264Z,101395.34
2022-10-30T19:36:38.376Z,101384.16
2022-10-30T19:39:16.738Z,101393.53
2022-10-30T19:41:46.706Z,101396.06
2022-10-30T19:44:13.792Z,101400.41
2022-10-30T19:46:40.796Z,101384.81
2022-10-30T19:49:22.943Z,101389.69
2022-10-30T19:51:50.018Z,101393.59
2022-10-30T19:54:17.151Z,101390.31
2022-10-30T19:56:44.453Z,101387.09
2022-10-30T19:59:14.973Z,101389.56
2022-10-30T20:01:43.845Z,101394.44
2022-10-30T20:04:14.132Z,101398.03
2022-10-30T20:06:41.225Z,101398.56
2022-10-30T20:09:15.251Z,101391.47
2022-10-30T20:11:44.779Z,101399.94
2022-10-30T20:14:12.030Z,101392.41
2022-10-30T20:16:39.227Z,101395.88
2022-10-30T20:19:41.645Z,101402.66
2022-10-30T20:22:11.321Z,101389.41
2022-10-30T20:24:38.429Z,101391.38
2022-10-30T20:27:06.404Z,101387.03
2022-10-30T20:29:36.941Z,101388.09
2022-10-30T20:32:09.794Z,101385.59
2022-10-30T20:34:36.866Z,101389.50
2022-10-30T20:37:04.153Z,101385.56
2022-10-30T20:39:33.760Z,101391.03
2022-10-30T20:42:01.022Z,101391.53
2022-10-30T20:44:28.112Z,101393.78
2022-10-30T20:46:55.429Z,101392.41
2022-10-30T20:49:25.083Z,101390.31
2022-10-30T20:51:52.477Z,101393.78
2022-10-30T20:54:19.701Z,101382.59
2022-10-30T20:56:49.164Z,101385.72
2022-10-30T20:59:16.416Z,101391.97
2022-10-30T21:01:46.184Z,101391.56
2022-10-30T21:04:13.867Z,101386.56
2022-10-30T21:06:43.472Z,101386.94
2022-10-30T21:09:10.828Z,101385.38
2022-10-30T21:11:38.058Z,101393.78
2022-10-30T21:14:05.396Z,101396.41
2022-10-30T21:16:32.667Z,101393.09
2022-10-30T21:19:00.027Z,101393.25
2022-10-30T21:21:27.117Z,101392.00
2022-10-30T21:23:55.418Z,101385.69
2022-10-30T21:26:24.927Z,101390.38
2022-10-30T21:28:52.231Z,101387.03
2022-10-30T21:31:19.446Z,101386.31
2022-10-30T21:33:47.315Z,101385.13
2022-10-30T21:36:17.414Z,101389.44
2022-10-30T21:38:47.209Z,101402.66
2022-10-30T21:41:21.780Z,101386.38
2022-10-30T21:43:51.707Z,101396.66
2022-10-30T21:46:20.202Z,101387.06
2022-10-30T21:48:47.427Z,101377.63
2022-10-30T21:51:23.520Z,101384.91
2022-10-30T21:53:51.479Z,101382.66
2022-10-30T21:56:25.057Z,101379.66
2022-10-30T21:58:53.101Z,101383.16
2022-10-30T22:01:29.862Z,101394.81
2022-10-30T22:04:02.955Z,101386.69
2022-10-30T22:06:30.886Z,101381.50
2022-10-30T22:09:01.163Z,101384.66
2022-10-30T22:11:29.355Z,101377.53
2022-10-30T22:14:02.395Z,101383.97
2022-10-30T22:16:32.441Z,101393.38
2022-10-30T22:19:00.709Z,101382.56
2022-10-30T22:21:28.269Z,101380.25
2022-10-30T22:23:55.665Z,101381.75
2022-10-30T22:26:23.762Z,101378.66
2022-10-30T22:28:58.308Z,101378.72
2022-10-30T22:31:28.656Z,101379.59
2022-10-30T22:33:56.313Z,101379.13
2022-10-30T22:36:26.557Z,101379.09
2022-10-30T22:38:58.387Z,101385.94
2022-10-30T22:41:27.745Z,101386.31
2022-10-30T22:43:57.452Z,101398.63
2022-10-30T22:46:30.133Z,101392.72
2022-10-30T22:49:00.192Z,101399.63
2022-10-30T22:51:29.864Z,101392.34
2022-10-30T22:54:01.392Z,101396.59
2022-10-30T22:56:32.306Z,101401.28
2022-10-30T22:59:03.505Z,101400.78
2022-10-30T23:01:33.512Z,101406.16
2022-10-30T23:04:02.777Z,101401.03
2022-10-30T23:06:32.355Z,101405.94
2022-10-30T23:09:02.615Z,101409.50
2022-10-30T23:11:30.664Z,101415.84
2022-10-30T23:13:57.869Z,101413.69
2022-10-30T23:16:26.509Z,101420.78
2022-10-30T23:18:59.118Z,101409.66
2022-10-30T23:21:30.312Z,101412.28
2022-10-30T23:23:58.070Z,101408.00
2022-10-30T23:26:31.569Z,101409.69
2022-10-30T23:29:00.492Z,101413.28
2022-10-30T23:31:28.961Z,101411.28
2022-10-30T23:34:00.296Z,101411.59
2022-10-30T23:36:27.995Z,101416.13
2022-10-30T23:38:58.161Z,101408.41
2022-10-30T23:41:28.696Z,101405.09
2022-10-30T23:43:58.292Z,101411.94
2022-10-30T23:46:26.395Z,101411.34
2022-10-30T23:48:53.682Z,101417.25
2022-10-30T23:51:21.752Z,101409.19
2022-10-30T23:53:49.255Z,101413.88
2022-10-30T23:56:17.754Z,101403.09
2022-10-30T23:58:49.832Z,101405.97
